Contship Sun — D5NF3 — position and weather

sailwx.info

Track history (hours):
 
Tides and Currents Weather Stations Pressure Air Temp Water Temp Dewpoint Dewpoint Depression Visibility Wind Speed Wind Dir Waves Ship Positions

Contship Sun

Last reported at 2017-Nov-17 19:15 UTC. Time now 2017-Nov-18 01:26 UTC.
Position N 43°21' E 005°20'.

Length 139 m; draft 6.7 m.

Type: Cargo ship. MMSI: 636017894.

Date/timePositionNaut miles runAvg speedWind from/ knotsBaromVisibWave heightAir tempDewpointWater temp
2017-Nov-17 19:15N 43°21' E 005°20'2 7.5
2017-Nov-17 19:00N 43°21' E 005°18'4 8.2
2017-Nov-17 18:30N 43°18' E 005°14'5 9.3
2017-Nov-17 18:00N 43°13' E 005°11'17712.8
2017-Nov-17 04:10N 41°17' E 002°11'5 0.3
2017-Nov-16 11:10N 41°13' E 002°09'0 0.2
2017-Nov-16 08:19N 41°13' E 002°08'411.5
2017-Nov-16 08:00N 41°10' E 002°05'613.0
2017-Nov-16 07:30N 41°05' E 002°00'612.8
2017-Nov-16 07:00N 40°59' E 001°56'  
2017-Nov-12 17:51N 35°43' W 000°38'0 0.0
2017-Nov-12 17:27N 35°43' W 000°38'0 0.0
2017-Nov-12 15:19N 35°43' W 000°38'0 0.0
2017-Nov-12 14:55N 35°43' W 000°38'0 0.0
2017-Nov-12 14:14N 35°43' W 000°38'0 0.0
2017-Nov-12 10:15N 35°43' W 000°38'0 0.0
2017-Nov-12 09:42N 35°43' W 000°38'  
2017-Nov-08 02:24N 35°59' W 005°16'512.0
2017-Nov-08 02:01N 35°58' W 005°22'  
Track history (hours):
 
Tides and Currents Weather Stations Pressure Air Temp Water Temp Dewpoint Dewpoint Depression Visibility Wind Speed Wind Dir Waves Ship Positions

Contship Sun

Last reported at 2017-Nov-17 19:15 UTC. Time now 2017-Nov-18 01:26 UTC.
Position N 43°21' E 005°20'.

Length 139 m; draft 6.7 m.

Type: Cargo ship. MMSI: 636017894.

Date/timePositionNaut miles runAvg speedWind from/ knotsBaromVisibWave heightAir tempDewpointWater temp
2017-Nov-17 19:15N 43°21' E 005°20'2 7.5
2017-Nov-17 19:00N 43°21' E 005°18'4 8.2
2017-Nov-17 18:30N 43°18' E 005°14'5 9.3
2017-Nov-17 18:00N 43°13' E 005°11'17712.8
2017-Nov-17 04:10N 41°17' E 002°11'5 0.3
2017-Nov-16 11:10N 41°13' E 002°09'0 0.2
2017-Nov-16 08:19N 41°13' E 002°08'411.5
2017-Nov-16 08:00N 41°10' E 002°05'613.0
2017-Nov-16 07:30N 41°05' E 002°00'612.8
2017-Nov-16 07:00N 40°59' E 001°56'  
2017-Nov-12 17:51N 35°43' W 000°38'0 0.0
2017-Nov-12 17:27N 35°43' W 000°38'0 0.0
2017-Nov-12 15:19N 35°43' W 000°38'0 0.0
2017-Nov-12 14:55N 35°43' W 000°38'0 0.0
2017-Nov-12 14:14N 35°43' W 000°38'0 0.0
2017-Nov-12 10:15N 35°43' W 000°38'0 0.0
2017-Nov-12 09:42N 35°43' W 000°38'  
2017-Nov-08 02:24N 35°59' W 005°16'512.0
2017-Nov-08 02:01N 35°58' W 005°22'  

Dump ship's entire track history